Time;durP1;ratioP1;P1;durP2;ratioP2;P2;SDS_P1;SDS_P2;PMS_P1;PMS_P2;Temp;Humidity;BMP_temperature;BMP_pressure;BME280_temperature;BME280_humidity;BME280_pressure;Samples;Min_cycle;Max_cycle;Signal;HPM_P1;HPM_P2
2022/11/13 00:01:55;;;;;;;;;54.75;41.50;;;;;13.91;69.94;101975.75;5074621;28;45237;-64
2022/11/13 00:04:20;;;;;;;;;51.75;41.50;;;;;13.94;70.10;101981.25;5081553;28;46109;-63
2022/11/13 00:06:45;;;;;;;;;51.00;40.00;;;;;13.89;70.21;101972.13;5082981;27;45266;-64
2022/11/13 00:09:11;;;;;;;;;51.50;41.25;;;;;13.64;69.74;101922.97;5080370;28;45496;-63
2022/11/13 00:11:36;;;;;;;;;51.25;41.25;;;;;13.98;70.00;101976.88;5078495;27;45252;-63
2022/11/13 00:14:03;;;;;;;;;50.25;42.00;;;;;13.92;70.03;101972.19;5074382;28;45612;-64
2022/11/13 00:16:28;;;;;;;;;51.75;36.50;;;;;13.96;69.94;101967.88;5079994;28;45231;-64
2022/11/13 00:18:53;;;;;;;;;55.75;44.00;;;;;13.96;69.74;101971.44;5085293;27;45441;-63
2022/11/13 00:21:21;;;;;;;;;54.00;42.75;;;;;13.96;69.89;101967.88;5075011;28;45306;-65
2022/11/13 00:23:47;;;;;;;;;51.75;42.50;;;;;13.95;69.99;101963.34;5076940;28;45155;-62
2022/11/13 00:26:18;;;;;;;;;50.50;40.25;;;;;13.95;69.62;101972.31;5080611;27;45187;-62
2022/11/13 00:28:43;;;;;;;;;53.75;41.50;;;;;13.90;69.64;101955.13;5080422;27;45882;-62
2022/11/13 00:31:11;;;;;;;;;52.50;41.75;;;;;13.93;69.74;101962.38;5084353;28;44955;-63
2022/11/13 00:33:37;;;;;;;;;56.00;43.50;;;;;13.86;69.69;101945.16;5079927;27;46359;-64
2022/11/13 00:36:14;;;;;;;;;49.25;35.50;;;;;13.90;70.00;101949.75;5088106;28;45206;-63
2022/11/13 00:38:40;;;;;;;;;50.50;40.75;;;;;13.89;70.27;101955.06;5084990;27;45115;-63
2022/11/13 00:41:05;;;;;;;;;49.75;40.75;;;;;13.90;70.06;101948.84;5079837;27;45247;-63
2022/11/13 00:43:30;;;;;;;;;49.50;39.75;;;;;13.89;70.33;101945.25;5083716;28;55740;-62
2022/11/13 00:45:56;;;;;;;;;53.25;42.00;;;;;13.87;70.42;101928.16;5083898;27;45114;-64
2022/11/13 00:48:21;;;;;;;;;56.00;44.00;;;;;13.91;70.29;101939.91;5079680;28;45616;-63
2022/11/13 00:50:48;;;;;;;;;48.75;35.75;;;;;13.91;70.17;101938.16;5089992;27;45083;-64
2022/11/13 00:53:13;;;;;;;;;56.25;45.00;;;;;13.91;70.01;101932.78;5078605;28;46240;-63
2022/11/13 00:55:38;;;;;;;;;52.00;36.25;;;;;13.91;70.14;101937.22;5082525;28;45112;-63
2022/11/13 00:58:04;;;;;;;;;60.50;43.25;;;;;13.91;70.00;101926.47;5076392;28;45306;-62
2022/11/13 01:00:30;;;;;;;;;49.25;40.50;;;;;13.81;70.25;101909.19;5075895;28;45445;-62
2022/11/13 01:02:57;;;;;;;;;48.50;39.75;;;;;13.85;70.09;101910.19;5072350;28;46014;-63
2022/11/13 01:05:23;;;;;;;;;48.50;37.75;;;;;13.87;69.75;101922.78;5076757;28;45261;-63
2022/11/13 01:07:48;;;;;;;;;55.00;41.50;;;;;13.86;70.11;101909.31;5073758;28;45169;-63
2022/11/13 01:10:14;;;;;;;;;50.75;42.25;;;;;13.85;69.33;101905.72;5084896;27;45255;-64
2022/11/13 01:12:39;;;;;;;;;55.50;43.25;;;;;13.85;69.93;101900.34;5081481;28;45605;-63
2022/11/13 01:15:05;;;;;;;;;50.75;40.25;;;;;13.80;69.18;101885.84;5078529;28;44933;-62
2022/11/13 01:17:30;;;;;;;;;58.50;45.00;;;;;13.80;69.33;101889.44;5078392;27;45482;-62
2022/11/13 01:19:56;;;;;;;;;55.50;43.25;;;;;13.75;69.34;101888.41;5077236;28;45002;-63
2022/11/13 01:22:21;;;;;;;;;53.75;41.25;;;;;13.74;68.94;101888.34;5070923;28;60784;-62
2022/11/13 01:24:46;;;;;;;;;63.50;49.25;;;;;13.71;69.28;101878.44;5087907;27;45148;-62
2022/11/13 01:27:14;;;;;;;;;55.25;44.00;;;;;13.69;69.12;101880.13;5083328;28;57335;-62
2022/11/13 01:29:39;;;;;;;;;54.00;45.00;;;;;13.62;69.05;101876.34;5072708;28;45313;-62
2022/11/13 01:32:04;;;;;;;;;54.50;44.50;;;;;13.59;69.29;101880.72;5078164;28;45566;-63
2022/11/13 01:34:30;;;;;;;;;54.00;43.50;;;;;13.56;68.81;101880.59;5073298;28;45087;-64
2022/11/13 01:36:55;;;;;;;;;50.50;41.00;;;;;13.55;68.82;101878.81;5075178;28;55213;-64
2022/11/13 01:39:20;;;;;;;;;51.00;39.25;;;;;13.50;68.90;101878.66;5072549;28;45114;-63
2022/11/13 01:41:46;;;;;;;;;49.50;40.00;;;;;13.46;69.24;101879.38;5083153;28;45244;-63
2022/11/13 01:44:17;;;;;;;;;41.50;34.25;;;;;13.42;69.16;101888.22;5080451;27;56051;-67
2022/11/13 01:46:55;;;;;;;;;48.00;37.50;;;;;13.39;68.71;101880.06;5082509;27;45492;-63
2022/11/13 01:49:36;;;;;;;;;42.25;35.25;;;;;13.37;68.65;101873.75;5072775;28;45576;-63
2022/11/13 01:52:05;;;;;;;;;46.00;36.00;;;;;13.36;68.93;101872.81;5078455;28;44980;-62
2022/11/13 01:54:35;;;;;;;;;42.25;34.00;;;;;13.34;69.23;101873.63;5077324;28;45004;-63
2022/11/13 01:57:03;;;;;;;;;40.50;35.00;;;;;13.27;68.52;101867.13;5074515;28;45403;-63
2022/11/13 01:59:33;;;;;;;;;37.00;33.00;;;;;13.18;68.93;101850.69;5082241;27;45112;-63
2022/11/13 02:01:59;;;;;;;;;42.25;34.50;;;;;13.25;69.12;101855.44;5075329;28;46314;-63
2022/11/13 02:04:25;;;;;;;;;41.25;32.25;;;;;13.27;69.05;101861.75;5077823;28;45127;-63
2022/11/13 02:07:00;;;;;;;;;36.50;31.25;;;;;13.19;69.47;101855.22;5083161;28;45319;-64
2022/11/13 02:09:32;;;;;;;;;41.50;33.50;;;;;13.19;68.82;101850.75;5071365;28;45160;-63
2022/11/13 02:11:58;;;;;;;;;39.00;32.75;;;;;13.21;69.19;101861.53;5084599;28;46003;-64
2022/11/13 02:14:26;;;;;;;;;41.00;33.75;;;;;13.18;68.62;101845.31;5085574;28;45039;-64
2022/11/13 02:16:55;;;;;;;;;34.00;30.50;;;;;13.03;68.89;101822.53;5082846;28;44886;-62
2022/11/13 02:19:26;;;;;;;;;37.25;31.75;;;;;13.05;69.11;101833.28;5079479;28;45094;-64
2022/11/13 02:22:06;;;;;;;;;42.00;31.75;;;;;13.07;68.72;101843.22;5082389;28;46034;-62
2022/11/13 02:24:35;;;;;;;;;32.50;29.75;;;;;13.03;68.63;101843.97;5084273;28;45175;-63
2022/11/13 02:27:05;;;;;;;;;36.75;30.50;;;;;12.98;69.76;101837.50;5077763;28;45582;-63
2022/11/13 02:29:31;;;;;;;;;41.25;33.50;;;;;13.05;69.44;101850.31;5077703;28;45082;-64
2022/11/13 02:31:56;;;;;;;;;37.75;32.00;;;;;13.04;68.73;101843.09;5083008;28;45327;-63
2022/11/13 02:34:22;;;;;;;;;34.25;29.25;;;;;13.03;69.51;101843.97;5088754;28;45943;-63
2022/11/13 02:36:48;;;;;;;;;37.25;31.75;;;;;12.95;68.63;101829.41;5079587;28;45531;-63
2022/11/13 02:39:14;;;;;;;;;34.00;29.00;;;;;13.00;69.14;101842.94;5078134;28;45270;-63
2022/11/13 02:41:39;;;;;;;;;34.75;29.00;;;;;12.98;69.32;101829.47;5081523;28;45908;-64
2022/11/13 02:44:06;;;;;;;;;34.50;28.25;;;;;12.99;68.72;101833.09;5084902;27;45481;-63
2022/11/13 02:46:32;;;;;;;;;35.50;31.50;;;;;12.88;69.22;101819.28;5086575;28;45107;-65
2022/11/13 02:48:57;;;;;;;;;36.25;31.00;;;;;12.93;69.03;101832.88;5076976;28;45185;-63
2022/11/13 02:51:23;;;;;;;;;34.25;29.50;;;;;12.91;68.70;101827.44;5076625;28;63463;-63
2022/11/13 02:53:48;;;;;;;;;33.25;31.00;;;;;12.91;69.60;101820.31;5082461;27;45457;-62
2022/11/13 02:56:13;;;;;;;;;39.25;33.50;;;;;12.92;69.28;101823.91;5082543;28;44952;-62
2022/11/13 02:58:39;;;;;;;;;37.75;31.50;;;;;12.89;68.94;101832.75;5081336;28;44940;-63
2022/11/13 03:01:04;;;;;;;;;35.50;30.75;;;;;12.89;69.49;101829.19;5080962;27;45447;-63
2022/11/13 03:03:31;;;;;;;;;32.50;28.75;;;;;12.87;69.11;101828.22;5085013;27;45884;-64
2022/11/13 03:05:56;;;;;;;;;36.75;33.75;;;;;12.83;68.68;101824.50;5084682;28;45294;-62
2022/11/13 03:08:24;;;;;;;;;36.25;31.50;;;;;12.83;69.03;101827.19;5081278;28;45283;-63
2022/11/13 03:10:53;;;;;;;;;36.25;33.25;;;;;12.83;69.15;101827.19;5076212;27;46326;-64
2022/11/13 03:13:18;;;;;;;;;37.50;30.00;;;;;12.82;69.40;101825.38;5074272;28;45131;-64
2022/11/13 03:15:43;;;;;;;;;34.75;31.00;;;;;12.84;68.95;101826.34;5070001;28;45695;-64
2022/11/13 03:18:12;;;;;;;;;32.25;30.25;;;;;12.83;69.33;101826.28;5086869;27;45047;-64
2022/11/13 03:20:40;;;;;;;;;36.50;31.75;;;;;12.78;68.45;101818.06;5084427;28;46368;-64
2022/11/13 03:23:06;;;;;;;;;34.50;30.25;;;;;12.72;69.09;101828.59;5083945;28;45324;-64
2022/11/13 03:25:33;;;;;;;;;39.75;30.50;;;;;12.69;68.83;101831.19;5076196;28;44843;-63
2022/11/13 03:27:58;;;;;;;;;34.25;31.50;;;;;12.58;69.58;101827.19;5076649;28;45025;-63
2022/11/13 03:30:25;;;;;;;;;36.75;31.00;;;;;12.56;69.85;101828.91;5084037;28;45632;-63
2022/11/13 03:32:55;;;;;;;;;37.25;32.25;;;;;12.45;69.86;101810.66;5080856;28;45000;-63
2022/11/13 03:35:24;;;;;;;;;37.25;33.00;;;;;12.53;69.97;101824.34;5081747;28;45383;-64
2022/11/13 03:37:49;;;;;;;;;36.50;33.50;;;;;12.47;70.08;101795.56;5073899;28;45099;-64
2022/11/13 03:40:15;;;;;;;;;40.50;31.75;;;;;12.43;69.38;101798.06;5083882;28;45531;-63
2022/11/13 03:42:40;;;;;;;;;33.75;30.75;;;;;12.55;69.97;101809.22;5087658;27;45211;-63
2022/11/13 03:45:06;;;;;;;;;35.00;29.00;;;;;12.52;69.87;101798.38;5081882;28;44961;-63
2022/11/13 03:47:31;;;;;;;;;35.75;30.50;;;;;12.57;69.66;101798.56;5087178;27;45154;-64
2022/11/13 03:49:56;;;;;;;;;28.50;25.75;;;;;12.55;69.52;101801.19;5073351;28;45516;-63
2022/11/13 03:52:22;;;;;;;;;40.75;32.50;;;;;12.54;70.56;101816.38;5082181;28;54244;-62
2022/11/13 03:54:47;;;;;;;;;43.50;36.25;;;;;12.44;70.21;101787.41;5075900;28;45167;-64
2022/11/13 03:57:12;;;;;;;;;48.00;35.50;;;;;12.51;69.21;101797.47;5088431;27;45788;-66
2022/11/13 03:59:38;;;;;;;;;46.75;35.25;;;;;12.52;69.97;101802.00;5085736;27;50415;-64
2022/11/13 04:02:03;;;;;;;;;48.00;36.50;;;;;12.43;69.98;101782.00;5086554;28;50542;-62
2022/11/13 04:04:28;;;;;;;;;49.00;37.00;;;;;12.39;69.11;101791.72;5085408;28;45073;-63
2022/11/13 04:06:53;;;;;;;;;41.50;33.50;;;;;12.42;69.01;101801.59;5084736;27;45137;-63
2022/11/13 04:09:19;;;;;;;;;48.25;38.25;;;;;12.35;69.97;101782.63;5088689;27;45853;-63
2022/11/13 04:11:44;;;;;;;;;48.00;36.50;;;;;12.35;69.44;101789.75;5080344;28;45185;-63
2022/11/13 04:14:09;;;;;;;;;38.00;33.50;;;;;12.33;69.42;101791.47;5080515;28;45075;-62
2022/11/13 04:16:35;;;;;;;;;45.75;36.00;;;;;12.30;69.73;101786.91;5076445;28;45129;-62
2022/11/13 04:19:00;;;;;;;;;38.00;31.50;;;;;12.30;69.67;101796.72;5078726;28;45218;-63
2022/11/13 04:21:26;;;;;;;;;39.25;32.50;;;;;12.26;70.38;101784.97;5084900;27;45020;-63
2022/11/13 04:23:52;;;;;;;;;31.50;30.25;;;;;12.23;69.25;101789.31;5082430;27;45115;-63
2022/11/13 04:26:17;;;;;;;;;37.50;31.25;;;;;12.22;69.76;101793.75;5086699;27;44993;-62
2022/11/13 04:28:42;;;;;;;;;31.75;27.25;;;;;12.19;69.86;101780.25;5086118;27;46031;-63
2022/11/13 04:31:08;;;;;;;;;32.75;27.25;;;;;12.17;69.49;101781.97;5073362;28;45046;-63
2022/11/13 04:33:33;;;;;;;;;33.50;30.00;;;;;12.14;69.36;101788.13;5084053;28;56200;-63
2022/11/13 04:35:58;;;;;;;;;35.00;28.75;;;;;12.08;69.80;101784.31;5084300;28;51275;-64
2022/11/13 04:38:24;;;;;;;;;30.25;28.00;;;;;12.10;68.83;101794.22;5082092;27;45642;-64
2022/11/13 04:42:47;;;;;;;;;37.75;30.00;;;;;12.07;69.81;101788.75;5080475;28;51740;-64
2022/11/13 04:43:35;;;;;;;;;31.25;26.25;;;;;12.00;69.54;101783.13;5082296;28;45019;-64
2022/11/13 04:46:00;;;;;;;;;41.50;31.00;;;;;11.97;68.61;101784.81;5089178;28;45246;-62
2022/11/13 04:48:26;;;;;;;;;29.75;26.75;;;;;11.93;69.41;101777.53;5082100;27;50310;-64
2022/11/13 04:50:51;;;;;;;;;28.00;25.75;;;;;11.90;69.54;101784.50;5071559;28;44953;-63
2022/11/13 04:53:16;;;;;;;;;30.50;23.50;;;;;11.82;68.94;101776.19;5084881;28;45174;-64
2022/11/13 04:55:42;;;;;;;;;23.50;23.00;;;;;11.77;69.45;101770.66;5079224;28;45312;-63
2022/11/13 04:58:07;;;;;;;;;26.25;23.00;;;;;11.72;69.19;101765.97;5072871;28;58687;-63
2022/11/13 05:00:32;;;;;;;;;29.50;25.75;;;;;11.75;68.80;101776.81;5084112;27;45374;-64
2022/11/13 05:02:58;;;;;;;;;30.25;27.00;;;;;11.73;69.36;101774.06;5071696;28;45056;-64
2022/11/13 05:05:23;;;;;;;;;25.50;23.25;;;;;11.72;69.19;101782.03;5084038;28;45166;-65
2022/11/13 05:07:48;;;;;;;;;30.00;26.25;;;;;11.66;69.70;101773.78;5083601;28;48454;-64
2022/11/13 05:10:14;;;;;;;;;25.75;23.00;;;;;11.51;69.50;101748.22;5081193;28;45084;-63
2022/11/13 05:12:39;;;;;;;;;30.75;27.25;;;;;11.70;70.15;101781.09;5082702;28;45673;-65
2022/11/13 05:15:05;;;;;;;;;25.00;23.00;;;;;11.64;69.23;101756.75;5073834;28;46830;-64
2022/11/13 05:17:30;;;;;;;;;23.75;21.50;;;;;11.72;69.76;101763.31;5076261;28;46026;-63
2022/11/13 05:19:56;;;;;;;;;22.50;20.50;;;;;11.72;69.72;101760.63;5084976;28;45020;-63
2022/11/13 05:22:21;;;;;;;;;27.25;24.50;;;;;11.70;69.07;101748.97;5079337;28;44960;-63
2022/11/13 05:24:46;;;;;;;;;23.00;19.50;;;;;11.76;69.22;101760.81;5075580;28;45325;-65
2022/11/13 05:27:12;;;;;;;;;24.25;22.25;;;;;11.73;69.70;101751.72;5081794;28;45877;-64
2022/11/13 05:29:40;;;;;;;;;22.00;18.25;;;;;11.78;69.35;101761.78;5079465;28;54544;-65
2022/11/13 05:32:05;;;;;;;;;23.25;21.75;;;;;11.78;69.23;101763.53;5085337;27;45114;-64
2022/11/13 05:34:30;;;;;;;;;20.25;20.25;;;;;11.81;68.96;101766.31;5074554;28;49117;-63
2022/11/13 05:36:56;;;;;;;;;24.00;24.00;;;;;11.77;68.69;101759.03;5070842;28;45330;-65
2022/11/13 05:39:21;;;;;;;;;26.50;23.00;;;;;11.75;69.34;101771.47;5078114;28;44976;-64
2022/11/13 05:41:46;;;;;;;;;25.75;22.00;;;;;11.71;68.88;101759.69;5077909;27;45103;-63
2022/11/13 05:44:12;;;;;;;;;23.75;23.00;;;;;11.76;68.93;101765.22;5076270;28;45739;-64
2022/11/13 05:46:37;;;;;;;;;28.25;23.00;;;;;11.66;68.49;101753.25;5085635;27;46001;-64
2022/11/13 05:49:03;;;;;;;;;22.50;20.00;;;;;11.59;68.56;101732.47;5088538;28;46404;-65
2022/11/13 05:51:31;;;;;;;;;26.00;23.25;;;;;11.71;69.30;101751.66;5078469;28;45133;-65
2022/11/13 05:53:57;;;;;;;;;24.00;20.75;;;;;11.69;68.38;101745.34;5080744;27;45127;-65
2022/11/13 05:56:26;;;;;;;;;25.00;22.00;;;;;11.68;69.40;101745.28;5084855;27;46097;-65
2022/11/13 05:58:52;;;;;;;;;22.75;21.25;;;;;11.67;69.23;101732.78;5080643;28;45249;-63
2022/11/13 06:01:26;;;;;;;;;25.50;22.75;;;;;11.60;68.55;101720.94;5089281;27;45132;-64
2022/11/13 06:03:54;;;;;;;;;21.75;21.75;;;;;11.65;69.41;101722.00;5078498;27;46102;-63
2022/11/13 06:06:21;;;;;;;;;22.75;22.25;;;;;11.59;68.85;101714.63;5088827;28;45293;-62
2022/11/13 06:08:47;;;;;;;;;22.50;22.25;;;;;11.65;69.04;101721.06;5085162;28;45367;-63
2022/11/13 06:11:18;;;;;;;;;29.75;25.50;;;;;11.64;69.17;101709.47;5088585;27;45120;-63
2022/11/13 06:13:44;;;;;;;;;23.00;21.25;;;;;11.65;69.10;101713.97;5084876;28;45254;-63
2022/11/13 06:16:22;;;;;;;;;25.50;21.25;;;;;11.64;68.47;101705.88;5080443;28;45504;-64
2022/11/13 06:18:48;;;;;;;;;23.50;20.00;;;;;11.63;68.40;101707.63;5087947;27;45351;-62
2022/11/13 06:21:20;;;;;;;;;22.25;20.50;;;;;11.52;68.66;101687.63;5075125;28;45044;-61
2022/11/13 06:23:46;;;;;;;;;22.75;19.00;;;;;11.66;69.27;101705.06;5086160;28;45077;-64
2022/11/13 06:26:19;;;;;;;;;26.00;19.25;;;;;11.57;68.56;101697.63;5090885;27;45571;-63
2022/11/13 06:28:44;;;;;;;;;19.25;18.50;;;;;11.56;68.73;101709.16;5080646;27;45306;-62
2022/11/13 06:31:15;;;;;;;;;20.75;18.50;;;;;11.55;68.49;101711.78;5077663;27;45298;-64
2022/11/13 06:33:41;;;;;;;;;22.50;17.50;;;;;11.55;68.93;101703.75;5083796;27;45077;-64
2022/11/13 06:36:10;;;;;;;;;21.25;19.00;;;;;11.59;68.39;101695.91;5086650;28;45880;-64
2022/11/13 06:38:37;;;;;;;;;20.25;18.75;;;;;11.61;68.57;101696.91;5079016;28;44977;-63
2022/11/13 06:41:03;;;;;;;;;23.75;20.00;;;;;11.45;68.64;101662.38;5081470;27;45308;-63
2022/11/13 06:43:30;;;;;;;;;22.00;19.50;;;;;11.67;68.26;101695.31;5091311;28;45181;-63
2022/11/13 06:45:55;;;;;;;;;27.00;20.25;;;;;11.61;68.50;101679.91;5083350;28;45727;-63
2022/11/13 06:48:22;;;;;;;;;19.50;18.50;;;;;11.55;67.81;101677.00;5091031;27;45281;-62
2022/11/13 06:50:47;;;;;;;;;20.25;17.50;;;;;11.58;68.40;101688.75;5092548;27;45224;-63
2022/11/13 06:53:13;;;;;;;;;25.75;22.25;;;;;11.55;68.45;101685.03;5080022;27;45794;-64
2022/11/13 06:55:47;;;;;;;;;22.50;19.50;;;;;11.58;68.63;101691.44;5083621;28;45059;-65
2022/11/13 06:58:14;;;;;;;;;23.75;22.75;;;;;11.54;68.52;101680.53;5073703;28;45199;-64
2022/11/13 07:00:40;;;;;;;;;28.50;23.00;;;;;11.56;68.39;101684.19;5086312;27;45040;-63
2022/11/13 07:03:06;;;;;;;;;20.25;19.75;;;;;11.62;68.18;101690.66;5081730;27;45519;-62
2022/11/13 07:05:31;;;;;;;;;23.75;23.75;;;;;11.56;68.05;101681.50;5082521;27;45300;-64
2022/11/13 07:07:56;;;;;;;;;24.75;22.00;;;;;11.59;67.73;101689.66;5078923;27;45162;-62
2022/11/13 07:10:21;;;;;;;;;26.75;23.25;;;;;11.43;68.71;101669.41;5077838;27;52041;-62
2022/11/13 07:12:47;;;;;;;;;19.00;18.75;;;;;11.57;68.92;101694.94;5085609;28;44902;-63
2022/11/13 07:15:12;;;;;;;;;20.50;19.25;;;;;11.59;68.94;101692.31;5076241;28;45522;-63
2022/11/13 07:17:38;;;;;;;;;21.50;15.75;;;;;11.55;69.39;101696.66;5082012;27;45076;-62
2022/11/13 07:20:03;;;;;;;;;27.25;24.00;;;;;11.56;68.21;101682.41;5082829;27;45449;-63
2022/11/13 07:22:29;;;;;;;;;22.25;19.00;;;;;11.58;68.33;101686.06;5088804;27;44983;-64
2022/11/13 07:24:55;;;;;;;;;27.75;22.00;;;;;11.60;68.39;101680.78;5086826;28;45508;-63
2022/11/13 07:27:20;;;;;;;;;24.00;23.25;;;;;11.61;68.34;101686.19;5080367;27;44921;-63
2022/11/13 07:29:46;;;;;;;;;26.25;18.75;;;;;11.64;68.21;101688.06;5087670;27;44910;-63
2022/11/13 07:32:11;;;;;;;;;31.25;25.50;;;;;11.66;68.52;101688.13;5085863;27;45063;-62
2022/11/13 07:34:36;;;;;;;;;22.00;22.00;;;;;11.72;68.60;101696.38;5077142;28;56074;-62
2022/11/13 07:37:05;;;;;;;;;24.00;22.75;;;;;11.73;68.32;101688.41;5076014;27;45091;-63
2022/11/13 07:39:30;;;;;;;;;27.00;22.50;;;;;11.68;68.07;101678.38;5084291;28;45367;-64
2022/11/13 07:41:55;;;;;;;;;23.75;20.00;;;;;11.77;68.30;101695.69;5088362;27;45304;-62
2022/11/13 07:44:21;;;;;;;;;25.25;22.50;;;;;11.75;68.00;101683.09;5078120;28;46021;-63
2022/11/13 07:46:46;;;;;;;;;24.25;21.50;;;;;11.80;68.46;101685.09;5090112;28;46302;-64
2022/11/13 07:49:11;;;;;;;;;24.00;22.75;;;;;11.83;68.38;101673.59;5084207;28;45273;-63
2022/11/13 07:51:37;;;;;;;;;24.25;20.50;;;;;11.88;67.83;101668.38;5076732;28;45321;-62
2022/11/13 07:54:02;;;;;;;;;26.75;21.25;;;;;11.88;69.06;101674.66;5082165;28;45188;-62
2022/11/13 07:56:27;;;;;;;;;20.50;16.50;;;;;11.95;69.08;101671.38;5085003;28;45243;-62
2022/11/13 07:58:53;;;;;;;;;22.50;19.00;;;;;11.97;68.25;101669.66;5075760;28;45313;-62
2022/11/13 08:01:18;;;;;;;;;18.75;15.75;;;;;12.01;67.66;101668.03;5081263;27;44972;-62
2022/11/13 08:03:43;;;;;;;;;23.75;19.25;;;;;12.06;68.41;101671.75;5081862;28;45669;-61
2022/11/13 08:06:09;;;;;;;;;22.75;19.00;;;;;12.05;68.10;101663.66;5087312;27;45956;-62
2022/11/13 08:08:34;;;;;;;;;15.25;15.25;;;;;12.14;67.77;101655.94;5083711;27;45121;-62
2022/11/13 08:11:05;;;;;;;;;21.75;17.75;;;;;12.21;68.04;101666.03;5081932;28;45095;-62
2022/11/13 08:13:30;;;;;;;;;20.50;17.50;;;;;12.22;67.80;101670.50;5089616;27;46283;-62
2022/11/13 08:16:00;;;;;;;;;19.50;17.50;;;;;12.23;68.09;101669.66;5081352;28;45383;-62
2022/11/13 08:18:27;;;;;;;;;19.50;17.25;;;;;12.23;67.44;101669.66;5085240;28;45108;-62
2022/11/13 08:20:53;;;;;;;;;12.75;9.75;;;;;12.31;67.10;101667.25;5076901;28;45227;-62
2022/11/13 08:23:18;;;;;;;;;21.50;21.00;;;;;12.29;67.33;101655.56;5084193;27;45827;-61
2022/11/13 08:25:43;;;;;;;;;24.00;20.50;;;;;12.27;67.13;101655.50;5082499;28;45276;-61
2022/11/13 08:28:09;;;;;;;;;20.75;16.75;;;;;12.27;66.97;101650.13;5079442;28;45216;-63
2022/11/13 08:30:34;;;;;;;;;17.25;13.50;;;;;12.32;67.40;101653.91;5087942;27;45000;-63
2022/11/13 08:33:01;;;;;;;;;21.25;18.75;;;;;12.37;66.97;101662.06;5083487;27;45547;-63
2022/11/13 08:35:27;;;;;;;;;26.25;21.75;;;;;12.37;67.13;101648.69;5077956;27;45192;-63
2022/11/13 08:37:52;;;;;;;;;15.00;11.75;;;;;12.27;67.53;101643.88;5086175;28;45781;-62
2022/11/13 08:40:17;;;;;;;;;14.25;14.25;;;;;12.22;67.47;101646.41;5078551;28;45200;-63
2022/11/13 08:42:43;;;;;;;;;17.00;15.50;;;;;12.19;67.25;101632.88;5081077;28;46178;-61
2022/11/13 08:45:09;;;;;;;;;41.25;37.00;;;;;11.98;67.51;101575.06;5087911;27;45158;-62
2022/11/13 08:47:35;;;;;;;;;27.25;26.50;;;;;12.33;67.04;101633.38;5078095;27;45165;-63
2022/11/13 08:50:02;;;;;;;;;26.00;23.75;;;;;12.40;67.24;101634.50;5075489;27;45278;-61
2022/11/13 08:52:27;;;;;;;;;21.25;18.25;;;;;12.44;66.08;101633.72;5094306;27;46170;-63
2022/11/13 08:54:53;;;;;;;;;18.50;16.50;;;;;12.48;65.73;101625.81;5084971;27;45162;-63
2022/11/13 08:57:18;;;;;;;;;20.25;16.25;;;;;12.57;66.85;101635.03;5077237;28;45163;-62
2022/11/13 08:59:44;;;;;;;;;27.50;26.50;;;;;12.61;65.90;101626.25;5080515;27;45253;-63
2022/11/13 09:02:14;;;;;;;;;30.75;29.00;;;;;12.66;66.39;101630.88;5083976;27;45550;-62
2022/11/13 09:04:40;;;;;;;;;25.00;23.50;;;;;12.69;66.20;101616.69;5072132;28;45754;-63
2022/11/13 09:07:05;;;;;;;;;24.25;20.25;;;;;12.75;65.25;101624.00;5080169;28;44862;-62
2022/11/13 09:09:30;;;;;;;;;29.00;23.50;;;;;12.79;65.77;101609.84;5071495;28;52386;-62
2022/11/13 09:11:56;;;;;;;;;23.50;23.50;;;;;12.85;65.77;101608.25;5077507;28;45238;-62
2022/11/13 09:14:21;;;;;;;;;36.50;31.75;;;;;12.82;65.20;101601.84;5079347;28;56147;-63
2022/11/13 09:16:47;;;;;;;;;27.75;22.25;;;;;12.90;65.05;101603.94;5075351;28;45065;-62
2022/11/13 09:19:12;;;;;;;;;17.50;16.50;;;;;12.86;64.71;101596.63;5073202;28;45093;-62
2022/11/13 09:21:37;;;;;;;;;24.50;23.50;;;;;12.87;65.12;101595.78;5079463;28;46374;-68
2022/11/13 09:24:03;;;;;;;;;22.50;19.25;;;;;12.76;65.00;101570.41;5081257;28;45319;-67
2022/11/13 09:26:28;;;;;;;;;17.00;16.00;;;;;12.62;64.15;101535.16;5076172;27;45303;-65
2022/11/13 09:28:53;;;;;;;;;26.00;23.00;;;;;12.92;65.41;101595.94;5076169;28;45251;-69
2022/11/13 09:31:19;;;;;;;;;22.00;21.00;;;;;12.98;64.53;101598.78;5084488;27;45230;-66
2022/11/13 09:33:44;;;;;;;;;26.50;23.00;;;;;12.98;65.44;101603.25;5075456;28;44886;-66
2022/11/13 09:36:13;;;;;;;;;36.25;28.00;;;;;12.84;64.92;101578.69;5081595;27;45189;-68
2022/11/13 09:38:39;;;;;;;;;27.50;23.75;;;;;12.95;64.60;101597.78;5090824;27;45660;-68
2022/11/13 09:41:10;;;;;;;;;32.50;27.00;;;;;12.87;65.17;101581.47;5086680;28;45637;-67
2022/11/13 09:43:53;;;;;;;;;27.75;23.50;;;;;12.94;64.71;101591.53;5079578;28;45128;-68
2022/11/13 09:46:27;;;;;;;;;19.75;17.75;;;;;12.93;64.86;101595.06;5084153;28;46909;-68
2022/11/13 09:49:02;;;;;;;;;23.00;20.00;;;;;12.94;65.12;101590.63;5084433;27;45290;-70
2022/11/13 09:51:31;;;;;;;;;21.25;16.00;;;;;12.84;65.09;101570.66;5086704;28;45595;-67
2022/11/13 09:54:01;;;;;;;;;23.50;22.75;;;;;13.01;64.97;101598.88;5102519;27;45305;-68
2022/11/13 09:56:33;;;;;;;;;25.25;22.00;;;;;13.02;65.47;101584.63;5101876;27;45004;-66
2022/11/13 09:59:04;;;;;;;;;22.75;22.00;;;;;13.08;64.66;101591.91;5078614;28;45020;-68
2022/11/13 10:01:36;;;;;;;;;22.25;20.25;;;;;13.11;65.19;101588.44;5079963;27;45641;-67
2022/11/13 10:04:06;;;;;;;;;27.75;25.00;;;;;13.10;65.65;101579.47;5084214;27;45332;-68
2022/11/13 10:06:31;;;;;;;;;26.75;23.50;;;;;13.16;64.51;101578.75;5092475;27;45575;-66
2022/11/13 10:09:11;;;;;;;;;28.25;24.75;;;;;13.23;64.77;101570.00;5086785;28;45323;-67
2022/11/13 10:11:44;;;;;;;;;20.75;19.75;;;;;13.30;64.54;101561.28;5080659;28;45187;-66
2022/11/13 10:14:13;;;;;;;;;27.75;23.25;;;;;13.47;64.41;101577.88;5078261;28;44956;-67
2022/11/13 10:16:48;;;;;;;;;23.00;18.50;;;;;13.59;64.51;101563.88;5076284;28;45047;-66
2022/11/13 10:19:28;;;;;;;;;33.25;28.00;;;;;13.68;64.56;101572.19;5088080;27;45249;-65
2022/11/13 10:22:19;;;;;;;;;26.50;21.00;;;;;13.72;64.00;101563.31;5089067;27;45357;-65
2022/11/13 10:24:50;;;;;;;;;25.25;23.25;;;;;13.75;63.35;101560.72;5101425;27;45751;-66
2022/11/13 10:27:16;;;;;;;;;26.00;23.25;;;;;13.74;63.59;101561.63;5074611;28;45312;-66
2022/11/13 10:29:42;;;;;;;;;31.00;25.25;;;;;13.76;63.09;101548.19;5086949;27;45084;-66
2022/11/13 10:32:31;;;;;;;;;19.50;18.00;;;;;13.74;63.54;101539.19;5091060;27;45079;-67
2022/11/13 10:35:08;;;;;;;;;29.00;26.00;;;;;13.82;63.54;101546.56;5081997;28;45072;-66
2022/11/13 10:37:55;;;;;;;;;68.75;52.50;;;;;13.79;62.89;101516.97;5077988;27;45064;-66
2022/11/13 10:40:37;;;;;;;;;32.25;29.00;;;;;13.99;62.90;101546.09;5091806;27;45388;-66
2022/11/13 10:43:15;;;;;;;;;27.50;24.00;;;;;14.05;62.78;101545.38;5078161;28;45068;-66
2022/11/13 10:45:42;;;;;;;;;24.25;22.75;;;;;14.03;62.70;101534.56;5084127;27;45273;-64
2022/11/13 10:48:27;;;;;;;;;27.75;22.25;;;;;14.15;62.02;101542.91;5088479;27;44936;-65
2022/11/13 10:51:06;;;;;;;;;26.75;23.50;;;;;14.24;62.36;101528.81;5078995;28;45109;-65
2022/11/13 10:53:41;;;;;;;;;34.00;29.00;;;;;14.30;61.50;101533.41;5080251;22;45384;-64
2022/11/13 10:56:28;;;;;;;;;28.00;23.75;;;;;14.36;62.04;101526.41;5057887;28;45264;-63
2022/11/13 10:59:04;;;;;;;;;49.75;37.75;;;;;14.46;62.07;101523.94;5057887;28;45006;-66
2022/11/13 11:01:30;;;;;;;;;28.50;26.25;;;;;14.57;61.40;101517.03;5049545;28;45336;-64
2022/11/13 11:03:55;;;;;;;;;30.25;26.25;;;;;14.64;61.44;101519.00;5040444;28;45531;-68
2022/11/13 11:06:33;;;;;;;;;64.50;49.25;;;;;14.62;61.17;101484.88;5043837;28;45377;-66
2022/11/13 11:09:18;;;;;;;;;25.50;22.75;;;;;14.79;60.55;101496.91;5051741;28;45333;-66
2022/11/13 11:12:19;;;;;;;;;29.50;22.75;;;;;14.75;60.62;101495.03;5049596;28;45435;-66